Airfield :
LOGIN :

Register | Disclaimer

   EN    FR    IT 

 










Legend :    VFR   Marginal VFR   IFR   Intensive IFR   Very Intensive IFR
Visi :
Ceiling :
>= 8 km
>= 3000ft
5 to 8 km
1000 to 3000 ft
1500m to 5 km
500 to 1000 ft
800 to 1500m
200 to 500 ft
< 800m
< 200 ft
Symbols :   Thunderstorms  Fog  Heavy snow  Heavy precipitations  Wind > 20 kt
SIGMETs :     Misc.  Thunderstorms  Icing  Turbulence  Mountain Waves  Volcanic Ashes







- Airport Elevation : 1674 ft
- IATA code : BRN


LSZB - Bern Belp

CURRENT METAR :
  • 190850Z 03007KT 6000 -DZ FEW015 BKN020 02/M01 Q1007 NOSIG

EXPIRED METARs :
  • 190820Z 04004KT 6000 BKN019 02/M01 Q1008 NOSIG
  • 190750Z 06004KT 010V110 7000 BKN020 02/M02 Q1008 RESN NOSIG
  • 190720Z 05005KT 010V090 9999 BKN019 02/M01 Q1008 NOSIG
  • 190650Z 06005KT 010V130 9999 BKN017 02/M02 Q1008 NOSIG
  • 190620Z 05006KT 350V090 9999 BKN018 02/M02 Q1009 NOSIG
  • 190550Z 05005KT 360V130 9999 BKN017 02/M02 Q1009 NOSIG

TAF TAF LSZB
Valid from the 19 at 09:00 until the 19 at 18:00 UTC


190825Z 1909/1918 06005KT 7000 BKN020
TEMPO 1909/1918 -SN BKN012
ATIS : +41 22 417 40 76
No reported NOTAMs for that airfield.



MET'MAP, your aeronautical weather chart ! - Copyright ORBIFLY December 2007 - Disclaimer

ORBIFLY MET'MAP TEAM :

Programming & Development : Alexandra Zaïnal
Concept & Development : Baudouin d'Aumeries
Co-Development & Prog : Marc-Olivier Méhu
Technical & hardware support : Manuel Goepfert

Contact : metmap@orbifly.com




SOURCES & CREDITS :

   NOAA